Victor, Colorado
Current Conditions -  °F | °C
As of 12:56 AM on Saturday 20 Dec 2014 (Local Time) from KCWN Reporting Station
Few Clouds Few Clouds  
Wind Chill: 32°   Ceiling: Unl
Heat Index: 32°   Visibility: 10mi
Dew Point: 14°   Wind: 3mph
Humidity: 48%   Direction: 300°WNW
Pressure: 30"   Gusts: NA
Location:  38.71°N, 105.14°W
Report Text: KCWN 200756Z AUTO 30003KT 10SM FEW220 00/M10 A3000 RMK AO2 SLP169 T00011098
Loading
Personal Weather Stations






























Interactive Weather Map New forecast layout! Learn more

10-Day Weather Forecast

Advertisements
Track Severe Weather on mobile